Terminal Aerodrome Forecast
Issued by NWS

Home | Current Version | Previous Version | Text Only | Print | Product List | Glossary On
Versions: 1 2 3 4 5 6 7 8 9 10 11 12 13 14 15 16 17 18 19 20 21
000
FTUS41 KALY 262329
TAFPSF
TAF
KPSF 262329Z 2700/2724 29005KT 3SM -RA BR BKN007 OVC015
      TEMPO 2700/2703 1SM -RA BR SCT007 OVC015
     FM270300 32005KT 3SM -RA BR SCT005 OVC010
      TEMPO 2703/2706 1SM -RASN BR OVC005
     FM270600 32005KT P6SM VCSH SCT008 OVC015
     FM271300 31010KT P6SM BKN035=

USA.gov is the U.S. government's official web portal to all federal, state and local government web resources and services.